Time;durP1;ratioP1;P1;durP2;ratioP2;P2;SDS_P1;SDS_P2;PMS_P1;PMS_P2;Temp;Humidity;BMP_temperature;BMP_pressure;BME280_temperature;BME280_humidity;BME280_pressure;Samples;Min_cycle;Max_cycle;Signal;HPM_P1;HPM_P2
2023/10/02 00:01:06;;;;;;;10.20;6.37;;;22.00;50.50;;;;;;4987792;28;20462;-46
2023/10/02 00:03:34;;;;;;;10.60;6.73;;;22.00;50.50;;;;;;4986553;28;20547;-48
2023/10/02 00:06:00;;;;;;;10.17;6.70;;;22.00;50.50;;;;;;4991086;28;20458;-44
2023/10/02 00:08:32;;;;;;;9.80;5.93;;;22.00;50.60;;;;;;4986130;28;20880;-48
2023/10/02 00:11:36;;;;;;;9.57;7.20;;;22.00;50.60;;;;;;4992364;28;20968;-46
2023/10/02 00:14:18;;;;;;;9.20;6.73;;;21.90;50.60;;;;;;4989275;28;20564;-47
2023/10/02 00:17:00;;;;;;;11.17;7.17;;;21.90;51.30;;;;;;4987922;28;20450;-47
2023/10/02 00:19:49;;;;;;;9.53;6.40;;;21.70;51.20;;;;;;4983479;28;20445;-50
2023/10/02 00:25:16;;;;;;;10.80;7.07;;;21.50;52.40;;;;;;4992395;28;20461;-49
2023/10/02 00:27:48;;;;;;;10.80;6.87;;;21.50;51.90;;;;;;4988650;28;20442;-49
2023/10/02 00:30:15;;;;;;;10.67;6.30;;;21.50;52.00;;;;;;4991263;28;20870;-49
2023/10/02 00:32:42;;;;;;;12.70;7.57;;;21.60;51.50;;;;;;4996029;28;20468;-48
2023/10/02 00:35:11;;;;;;;10.00;7.10;;;21.50;51.60;;;;;;4991856;28;20441;-52
2023/10/02 00:37:43;;;;;;;10.67;6.43;;;21.60;51.50;;;;;;4992588;28;20448;-50
2023/10/02 00:40:30;;;;;;;14.37;7.60;;;21.50;51.30;;;;;;4989784;28;20442;-52
2023/10/02 00:45:49;;;;;;;13.07;7.13;;;21.30;52.50;;;;;;4989449;28;20489;-51
2023/10/02 00:48:25;;;;;;;12.40;7.70;;;21.20;52.10;;;;;;4992432;28;20456;-49
2023/10/02 00:50:54;;;;;;;12.03;7.33;;;21.10;52.50;;;;;;4989554;28;20521;-50
2023/10/02 00:53:37;;;;;;;15.03;6.70;;;21.10;52.30;;;;;;4988100;28;20449;-47
2023/10/02 00:56:19;;;;;;;10.00;6.30;;;21.20;52.10;;;;;;4988576;28;20484;-51
2023/10/02 00:58:57;;;;;;;9.13;6.70;;;21.20;52.20;;;;;;4988697;28;20926;-48
2023/10/02 01:01:23;;;;;;;11.73;7.20;;;21.10;52.80;;;;;;4993063;28;20481;-46
2023/10/02 01:06:54;;;;;;;14.33;6.70;;;21.10;52.30;;;;;;4986738;28;20500;-49
2023/10/02 01:09:19;;;;;;;12.40;7.20;;;21.00;52.50;;;;;;4988194;28;20461;-47
2023/10/02 01:11:45;;;;;;;12.23;8.03;;;20.90;53.00;;;;;;4987526;28;20485;-50
2023/10/02 01:14:11;;;;;;;11.20;6.57;;;20.80;53.50;;;;;;4986699;28;20575;-45
2023/10/02 01:16:47;;;;;;;10.73;7.40;;;20.60;53.70;;;;;;4992052;28;21005;-46
2023/10/02 01:19:13;;;;;;;9.97;6.17;;;20.60;54.00;;;;;;4988692;28;20268;-47
2023/10/02 01:21:40;;;;;;;10.33;6.87;;;20.70;53.70;;;;;;4993342;28;20565;-46
2023/10/02 01:24:10;;;;;;;9.53;6.50;;;20.60;54.10;;;;;;4992872;28;20202;-48
2023/10/02 01:26:40;;;;;;;12.60;7.10;;;20.50;54.50;;;;;;4993473;28;20453;-49
2023/10/02 01:29:07;;;;;;;15.10;7.30;;;20.40;54.30;;;;;;4993547;28;20483;-45
2023/10/02 01:31:44;;;;;;;14.20;7.40;;;20.40;54.40;;;;;;4992941;28;20521;-46
2023/10/02 01:34:13;;;;;;;9.53;6.03;;;20.30;54.70;;;;;;4990610;28;20876;-45
2023/10/02 01:36:41;;;;;;;11.10;6.83;;;20.30;54.70;;;;;;4992007;28;20956;-50
2023/10/02 01:39:15;;;;;;;9.33;6.90;;;20.30;54.80;;;;;;4980562;28;20450;-45
2023/10/02 01:41:48;;;;;;;8.83;6.47;;;20.20;54.70;;;;;;4990583;28;20489;-46
2023/10/02 01:44:20;;;;;;;12.20;7.33;;;20.30;54.60;;;;;;4989214;28;20446;-46
2023/10/02 01:46:49;;;;;;;12.60;7.20;;;20.30;54.90;;;;;;4988371;28;20469;-52
2023/10/02 01:49:25;;;;;;;12.07;6.40;;;20.20;54.50;;;;;;4995102;28;20806;-48
2023/10/02 01:51:55;;;;;;;9.87;6.20;;;20.00;55.30;;;;;;4982579;28;20480;-49
2023/10/02 01:54:22;;;;;;;13.10;8.23;;;20.00;55.50;;;;;;4984486;28;20460;-49
2023/10/02 01:56:49;;;;;;;12.83;7.00;;;20.10;55.00;;;;;;4987743;28;20901;-45
2023/10/02 01:59:16;;;;;;;11.23;6.47;;;20.10;55.20;;;;;;4989690;28;20460;-52
2023/10/02 02:01:57;;;;;;;12.00;7.33;;;20.00;55.20;;;;;;4985957;28;20868;-45
2023/10/02 02:04:28;;;;;;;12.23;7.33;;;19.90;55.40;;;;;;4988192;28;20521;-45
2023/10/02 02:06:57;;;;;;;12.27;6.63;;;19.90;55.60;;;;;;4988728;28;20536;-45
2023/10/02 02:09:37;;;;;;;9.73;6.30;;;20.00;55.60;;;;;;4983293;28;20457;-47
2023/10/02 02:12:07;;;;;;;11.07;6.70;;;20.20;55.00;;;;;;4986874;28;21002;-45
2023/10/02 02:14:40;;;;;;;13.07;7.53;;;20.20;54.90;;;;;;4989661;28;20544;-45
2023/10/02 02:17:12;;;;;;;11.07;6.67;;;20.20;54.40;;;;;;4985907;28;20542;-51
2023/10/02 02:19:47;;;;;;;10.37;6.10;;;20.30;54.20;;;;;;5001174;28;20453;-47
2023/10/02 02:22:14;;;;;;;9.70;6.30;;;20.20;53.90;;;;;;4990689;28;20881;-49
2023/10/02 02:24:39;;;;;;;12.57;7.93;;;20.30;54.00;;;;;;4989546;28;20936;-45
2023/10/02 02:27:06;;;;;;;11.10;7.47;;;20.20;53.90;;;;;;4990493;28;20446;-46
2023/10/02 02:29:33;;;;;;;13.00;6.80;;;20.20;54.10;;;;;;4991654;28;20210;-50
2023/10/02 02:31:59;;;;;;;10.53;7.13;;;20.10;54.40;;;;;;4988630;28;20482;-45
2023/10/02 02:34:26;;;;;;;11.17;7.70;;;20.00;54.60;;;;;;4991361;28;20447;-45
2023/10/02 02:36:54;;;;;;;12.50;7.20;;;20.00;54.90;;;;;;4995546;28;20456;-50
2023/10/02 02:39:22;;;;;;;11.73;6.50;;;19.80;55.60;;;;;;4987706;28;20949;-47
2023/10/02 02:44:50;;;;;;;10.37;7.10;;;20.00;54.90;;;;;;4994755;28;20515;-48
2023/10/02 02:47:18;;;;;;;9.57;7.00;;;19.90;54.70;;;;;;4985138;28;20453;-48
2023/10/02 02:49:48;;;;;;;9.43;6.70;;;19.90;55.10;;;;;;4983212;28;20438;-50
2023/10/02 02:52:19;;;;;;;11.37;5.90;;;19.80;55.30;;;;;;4986970;28;20965;-45
2023/10/02 02:55:22;;;;;;;9.30;5.77;;;19.90;55.50;;;;;;4989273;28;20473;-52
2023/10/02 02:57:45;;;;;;;10.83;6.80;;;19.80;56.10;;;;;;4988526;28;20461;-46
2023/10/02 03:00:29;;;;;;;10.60;6.60;;;19.60;56.60;;;;;;4996785;28;20442;-47
2023/10/02 03:02:57;;;;;;;11.03;6.33;;;19.50;57.00;;;;;;4985214;28;21012;-49
2023/10/02 03:05:31;;;;;;;10.27;7.00;;;19.60;56.90;;;;;;4992728;28;20445;-45
2023/10/02 03:08:08;;;;;;;12.60;7.47;;;19.70;56.80;;;;;;4988214;28;20819;-46
2023/10/02 03:10:37;;;;;;;11.90;7.83;;;19.80;55.60;;;;;;4988486;28;20450;-45
2023/10/02 03:13:03;;;;;;;10.30;6.60;;;19.90;55.00;;;;;;5000163;28;20448;-47
2023/10/02 03:15:47;;;;;;;9.90;7.40;;;20.00;54.70;;;;;;4994942;28;20477;-48
2023/10/02 03:18:23;;;;;;;9.87;6.37;;;20.00;54.50;;;;;;4986851;28;20568;-47
2023/10/02 03:20:52;;;;;;;10.13;6.33;;;20.00;54.50;;;;;;4989341;28;20441;-45
2023/10/02 03:23:18;;;;;;;10.60;7.10;;;19.80;55.90;;;;;;4982893;28;20497;-46
2023/10/02 03:25:48;;;;;;;9.70;6.50;;;19.50;56.10;;;;;;5001959;28;20441;-45
2023/10/02 03:28:27;;;;;;;10.70;7.00;;;19.40;56.60;;;;;;4989083;28;20806;-46
2023/10/02 03:30:57;;;;;;;9.60;6.70;;;19.50;56.40;;;;;;4982330;28;20953;-45
2023/10/02 03:33:25;;;;;;;12.60;7.40;;;19.60;55.80;;;;;;4984853;28;20484;-46
2023/10/02 03:35:58;;;;;;;8.60;6.10;;;19.30;56.20;;;;;;4987333;28;20476;-46
2023/10/02 03:38:32;;;;;;;12.87;7.20;;;19.20;56.90;;;;;;4986496;28;20445;-47
2023/10/02 03:41:02;;;;;;;11.40;7.23;;;19.30;56.80;;;;;;4986570;28;20453;-45
2023/10/02 03:43:34;;;;;;;9.73;6.33;;;19.30;56.60;;;;;;4988606;28;20450;-45
2023/10/02 03:46:06;;;;;;;12.40;6.70;;;19.40;56.00;;;;;;4986198;28;20449;-45
2023/10/02 03:48:36;;;;;;;10.03;6.23;;;19.50;56.00;;;;;;4984402;28;20465;-46
2023/10/02 03:51:06;;;;;;;12.40;7.37;;;19.40;55.90;;;;;;4978934;28;20449;-46
2023/10/02 03:53:33;;;;;;;10.63;7.07;;;19.40;56.60;;;;;;4983631;28;20434;-50
2023/10/02 03:58:51;;;;;;;11.87;7.07;;;19.60;56.10;;;;;;4984554;28;20444;-50
2023/10/02 04:01:31;;;;;;;11.60;6.80;;;19.60;55.60;;;;;;4985749;28;20961;-46
2023/10/02 04:06:42;;;;;;;9.77;7.30;;;19.70;54.70;;;;;;4992586;28;20463;-44
2023/10/02 04:11:38;;;;;;;8.70;6.53;;;19.60;54.60;;;;;;4985366;28;20461;-45
2023/10/02 04:14:16;;;;;;;12.60;6.40;;;19.60;54.70;;;;;;4983061;28;20792;-46
2023/10/02 04:16:49;;;;;;;11.13;7.03;;;19.50;55.80;;;;;;4989027;28;20449;-45
2023/10/02 04:19:16;;;;;;;10.63;6.80;;;19.20;56.40;;;;;;4997654;28;20925;-45
2023/10/02 04:21:45;;;;;;;9.80;7.43;;;19.10;56.30;;;;;;4998819;28;20496;-45
2023/10/02 04:24:11;;;;;;;10.90;6.23;;;18.80;57.00;;;;;;4993273;28;20864;-46
2023/10/02 04:26:36;;;;;;;12.87;7.77;;;18.40;57.90;;;;;;4994921;28;20446;-45
2023/10/02 04:31:41;;;;;;;11.37;6.47;;;18.10;59.40;;;;;;4990390;28;20194;-47
2023/10/02 04:34:29;;;;;;;12.27;7.17;;;18.10;59.20;;;;;;4991428;28;20984;-47
2023/10/02 04:36:54;;;;;;;10.50;7.10;;;18.00;59.00;;;;;;4994827;28;20834;-46
2023/10/02 04:42:14;;;;;;;8.57;6.07;;;18.30;58.70;;;;;;4997319;28;20237;-48
2023/10/02 04:44:48;;;;;;;10.90;7.07;;;18.50;57.90;;;;;;4981658;28;20539;-44
2023/10/02 04:47:18;;;;;;;10.93;6.13;;;18.70;57.80;;;;;;4987760;28;20449;-45
2023/10/02 04:53:03;;;;;;;9.60;6.60;;;18.70;57.80;;;;;;4988173;28;20485;-45
2023/10/02 04:55:31;;;;;;;10.97;6.30;;;18.80;57.30;;;;;;4988071;28;20951;-45
2023/10/02 04:58:04;;;;;;;11.30;7.50;;;18.80;57.20;;;;;;4984259;28;21181;-45
2023/10/02 05:00:33;;;;;;;12.23;7.43;;;18.90;56.70;;;;;;4988080;28;22901;-45
2023/10/02 05:03:09;;;;;;;9.03;5.43;;;18.90;56.60;;;;;;4986001;28;20489;-47
2023/10/02 05:05:47;;;;;;;12.00;6.40;;;18.90;57.10;;;;;;4985841;28;20822;-45
2023/10/02 05:08:20;;;;;;;12.90;7.00;;;18.90;57.20;;;;;;4991736;28;20507;-45
2023/10/02 05:10:56;;;;;;;8.63;6.50;;;18.70;57.00;;;;;;4993199;28;20470;-45
2023/10/02 05:16:07;;;;;;;11.67;7.20;;;18.50;58.40;;;;;;4999139;28;20452;-44
2023/10/02 05:18:33;;;;;;;10.37;6.83;;;18.50;58.40;;;;;;4989257;28;20442;-47
2023/10/02 05:21:01;;;;;;;9.83;6.30;;;18.60;58.90;;;;;;4982754;28;20816;-44
2023/10/02 05:23:28;;;;;;;8.83;6.30;;;18.80;58.10;;;;;;4991573;28;20572;-44
2023/10/02 05:25:54;;;;;;;13.60;7.43;;;18.90;57.80;;;;;;5001427;28;20460;-46
2023/10/02 05:28:20;;;;;;;10.53;6.70;;;19.00;57.80;;;;;;4982786;28;20438;-46
2023/10/02 05:30:46;;;;;;;11.37;6.80;;;19.20;57.50;;;;;;4987298;28;20437;-45
2023/10/02 05:33:16;;;;;;;11.57;6.67;;;19.30;56.90;;;;;;4992227;28;20256;-45
2023/10/02 05:35:45;;;;;;;10.43;5.87;;;19.50;56.40;;;;;;5000484;28;20247;-44
2023/10/02 05:38:16;;;;;;;8.83;6.10;;;19.10;56.40;;;;;;4988049;28;20465;-44
2023/10/02 05:40:47;;;;;;;13.20;6.40;;;19.10;57.30;;;;;;4993110;28;20441;-45
2023/10/02 05:43:22;;;;;;;12.47;7.70;;;19.30;56.90;;;;;;4985408;28;20477;-45
2023/10/02 05:45:47;;;;;;;13.20;7.70;;;19.40;56.00;;;;;;4984693;28;20457;-47
2023/10/02 05:48:15;;;;;;;8.97;5.80;;;19.60;55.90;;;;;;4986404;28;20483;-46
2023/10/02 05:50:47;;;;;;;12.53;7.10;;;19.50;55.30;;;;;;4998808;28;20191;-45
2023/10/02 05:53:17;;;;;;;10.70;6.30;;;19.30;55.80;;;;;;4987201;28;20529;-46
2023/10/02 05:58:27;;;;;;;13.00;7.57;;;19.20;56.60;;;;;;4994127;28;20475;-49
2023/10/02 06:00:57;;;;;;;9.87;7.07;;;19.20;56.70;;;;;;4996341;28;20438;-47
2023/10/02 06:03:23;;;;;;;11.27;6.70;;;19.10;56.70;;;;;;4999613;28;20701;-45
2023/10/02 06:08:34;;;;;;;8.20;5.90;;;19.20;56.30;;;;;;5006320;28;20568;-46
2023/10/02 06:11:25;;;;;;;10.50;6.97;;;19.20;56.40;;;;;;4989326;28;20867;-45
2023/10/02 06:13:51;;;;;;;11.10;6.97;;;19.20;56.60;;;;;;5000993;28;20433;-45
2023/10/02 06:16:17;;;;;;;9.63;7.20;;;19.30;56.70;;;;;;4995883;28;20860;-46
2023/10/02 06:18:43;;;;;;;8.60;6.07;;;19.30;56.10;;;;;;5006356;28;20425;-45
2023/10/02 06:21:10;;;;;;;9.47;6.73;;;19.30;56.40;;;;;;4991263;28;20965;-45
2023/10/02 06:23:39;;;;;;;8.67;5.90;;;19.20;56.80;;;;;;4991073;28;20658;-45
2023/10/02 06:26:11;;;;;;;11.40;6.93;;;18.90;56.60;;;;;;4988470;28;21014;-44
2023/10/02 06:28:37;;;;;;;9.37;6.63;;;19.00;57.40;;;;;;4990214;28;20446;-44
2023/10/02 06:31:06;;;;;;;9.97;6.90;;;19.10;57.10;;;;;;4986455;28;20764;-45
2023/10/02 06:33:36;;;;;;;11.67;6.90;;;19.10;56.80;;;;;;4989580;28;20992;-44
2023/10/02 06:36:05;;;;;;;11.47;6.40;;;18.90;57.30;;;;;;4992291;28;20507;-46
2023/10/02 06:38:31;;;;;;;10.47;6.50;;;18.90;57.70;;;;;;4993382;28;20943;-44
2023/10/02 06:40:59;;;;;;;9.40;6.43;;;19.30;57.40;;;;;;4993583;28;20942;-45
2023/10/02 06:43:28;;;;;;;10.50;7.00;;;19.80;56.60;;;;;;5000923;28;20545;-44
2023/10/02 06:46:06;;;;;;;13.33;7.43;;;19.60;55.80;;;;;;4993238;28;20434;-44
2023/10/02 06:48:35;;;;;;;12.13;6.87;;;19.60;56.30;;;;;;4999010;28;20460;-44
2023/10/02 06:51:03;;;;;;;10.37;7.27;;;20.00;56.80;;;;;;4998225;28;20441;-45
2023/10/02 06:53:28;;;;;;;9.20;6.30;;;20.40;55.40;;;;;;5004331;28;20441;-44
2023/10/02 06:55:58;;;;;;;10.37;6.77;;;20.70;55.30;;;;;;4994014;28;20480;-44
2023/10/02 06:58:29;;;;;;;10.23;7.17;;;20.80;54.80;;;;;;5005309;28;20680;-44
2023/10/02 07:00:54;;;;;;;10.90;8.50;;;21.00;54.60;;;;;;4987854;28;20453;-45
2023/10/02 07:03:21;;;;;;;13.10;7.97;;;21.10;54.30;;;;;;5004185;28;20498;-44
2023/10/02 07:05:48;;;;;;;10.50;6.80;;;21.20;54.10;;;;;;4999901;28;20210;-44
2023/10/02 07:08:27;;;;;;;10.73;6.90;;;21.60;54.10;;;;;;5003198;28;20510;-45
2023/10/02 07:10:53;;;;;;;9.73;7.90;;;21.80;53.50;;;;;;4998512;28;20890;-46
2023/10/02 07:13:19;;;;;;;10.40;6.27;;;21.90;53.10;;;;;;5007244;28;20449;-45
2023/10/02 07:15:45;;;;;;;11.10;7.60;;;22.00;53.20;;;;;;5002591;28;20798;-45
2023/10/02 07:18:12;;;;;;;8.10;6.53;;;22.20;53.10;;;;;;4992514;28;20276;-47
2023/10/02 07:20:42;;;;;;;11.40;6.87;;;22.30;52.60;;;;;;5000348;28;20852;-46
2023/10/02 07:23:19;;;;;;;10.77;7.53;;;22.30;52.80;;;;;;4999015;28;20521;-45
2023/10/02 07:25:51;;;;;;;10.10;6.97;;;22.40;52.90;;;;;;4984417;28;20432;-47
2023/10/02 07:28:20;;;;;;;12.10;7.83;;;22.80;52.60;;;;;;4999489;28;20454;-48
2023/10/02 07:30:47;;;;;;;11.20;6.83;;;23.10;51.90;;;;;;4987726;28;20456;-47
2023/10/02 07:33:13;;;;;;;10.80;7.60;;;23.30;51.20;;;;;;4989195;28;20446;-50
2023/10/02 07:35:39;;;;;;;10.17;7.37;;;23.50;51.20;;;;;;4990472;28;20478;-45
2023/10/02 07:38:08;;;;;;;11.73;7.67;;;23.40;51.10;;;;;;4995654;28;21015;-45
2023/10/02 07:40:46;;;;;;;12.20;7.33;;;23.50;51.00;;;;;;4985994;28;20752;-45
2023/10/02 07:43:18;;;;;;;11.43;7.00;;;23.50;51.00;;;;;;4987143;28;20481;-45
2023/10/02 07:46:30;;;;;;;10.67;7.73;;;23.60;51.00;;;;;;4985476;28;20517;-46
2023/10/02 07:48:35;;;;;;;9.80;7.37;;;23.50;51.60;;;;;;4982962;28;20457;-45
2023/10/02 07:51:09;;;;;;;11.30;6.60;;;23.80;50.90;;;;;;4989357;28;20450;-46
2023/10/02 07:53:43;;;;;;;9.70;6.77;;;23.60;50.90;;;;;;4996854;28;20225;-46
2023/10/02 07:56:11;;;;;;;13.00;7.63;;;23.60;51.10;;;;;;5008971;28;20488;-46
2023/10/02 07:58:37;;;;;;;11.23;7.70;;;23.30;51.30;;;;;;5005931;28;20935;-48
2023/10/02 08:01:11;;;;;;;15.90;8.80;;;23.20;51.80;;;;;;5001399;28;20525;-47
2023/10/02 08:03:49;;;;;;;11.20;7.30;;;22.90;52.90;;;;;;5000810;28;20524;-45
2023/10/02 08:06:21;;;;;;;11.60;7.73;;;23.20;52.50;;;;;;4999398;28;20608;-47
2023/10/02 08:09:35;;;;;;;9.20;7.17;;;23.20;52.10;;;;;;4989089;28;20442;-45
2023/10/02 08:11:35;;;;;;;12.13;8.80;;;23.40;51.80;;;;;;4992403;28;20449;-45
2023/10/02 08:14:02;;;;;;;12.17;7.67;;;23.70;51.30;;;;;;5002580;28;20472;-46
2023/10/02 08:16:32;;;;;;;8.70;6.13;;;23.80;51.20;;;;;;4998034;28;20456;-48
2023/10/02 08:18:59;;;;;;;12.13;7.67;;;23.80;51.00;;;;;;4990933;28;20453;-48
2023/10/02 08:21:46;;;;;;;12.03;7.17;;;24.00;51.00;;;;;;4989779;28;20449;-46
2023/10/02 08:24:13;;;;;;;12.37;7.83;;;24.10;50.40;;;;;;4995569;28;20801;-46
2023/10/02 08:26:45;;;;;;;11.33;7.50;;;24.40;50.30;;;;;;4995728;28;20441;-50
2023/10/02 08:29:15;;;;;;;11.40;7.73;;;24.70;50.20;;;;;;4988266;28;20499;-50
2023/10/02 08:31:43;;;;;;;13.40;7.50;;;24.90;49.70;;;;;;4995947;28;20442;-51
2023/10/02 08:34:19;;;;;;;9.73;7.40;;;25.10;49.10;;;;;;4983129;28;20441;-50
2023/10/02 08:36:45;;;;;;;10.87;7.17;;;25.20;48.50;;;;;;4980653;28;20446;-49
2023/10/02 08:39:11;;;;;;;12.10;8.03;;;25.40;48.30;;;;;;4995909;28;20452;-49
2023/10/02 08:41:43;;;;;;;12.90;6.97;;;25.40;48.20;;;;;;4981941;28;20496;-47
2023/10/02 08:44:13;;;;;;;12.80;7.90;;;25.60;48.50;;;;;;4999225;28;20209;-47
2023/10/02 08:46:42;;;;;;;13.63;8.30;;;25.60;47.90;;;;;;4986039;28;21067;-47
2023/10/02 08:49:12;;;;;;;15.73;7.43;;;25.90;47.80;;;;;;4989081;28;20952;-51
2023/10/02 08:51:39;;;;;;;10.67;7.30;;;25.90;47.40;;;;;;4991869;28;20819;-46
2023/10/02 08:54:05;;;;;;;12.70;8.50;;;25.90;48.00;;;;;;4988999;28;21026;-52
2023/10/02 08:56:43;;;;;;;10.90;7.07;;;26.20;47.40;;;;;;4988706;28;20560;-48
2023/10/02 08:59:16;;;;;;;13.70;8.73;;;26.40;46.90;;;;;;4983027;28;20450;-50
2023/10/02 09:01:48;;;;;;;13.00;7.97;;;26.60;46.50;;;;;;4988762;28;20489;-49
2023/10/02 09:04:22;;;;;;;14.87;8.00;;;26.80;45.80;;;;;;4996616;28;20493;-49
2023/10/02 09:06:49;;;;;;;20.33;8.33;;;27.00;45.80;;;;;;4994910;28;20533;-50
2023/10/02 09:09:36;;;;;;;13.30;8.80;;;27.10;44.90;;;;;;4992523;28;20449;-51
2023/10/02 09:12:03;;;;;;;15.00;8.27;;;27.10;44.70;;;;;;4987945;28;20488;-50
2023/10/02 09:17:19;;;;;;;14.00;8.60;;;27.40;44.60;;;;;;4989634;28;20488;-48
2023/10/02 09:20:07;;;;;;;11.57;7.90;;;27.60;44.30;;;;;;5005658;28;20450;-48
2023/10/02 09:22:41;;;;;;;14.50;8.70;;;27.80;44.40;;;;;;4987623;28;20500;-48
2023/10/02 09:25:23;;;;;;;12.93;8.30;;;27.80;43.10;;;;;;4990523;28;20445;-48
2023/10/02 09:27:56;;;;;;;15.33;9.57;;;27.90;42.90;;;;;;4985262;28;20454;-54
2023/10/02 09:33:08;;;;;;;13.10;7.93;;;28.10;42.90;;;;;;4997219;28;20453;-48
2023/10/02 09:35:44;;;;;;;11.67;8.60;;;28.20;43.20;;;;;;4990864;28;20492;-50
2023/10/02 09:38:13;;;;;;;14.93;8.77;;;28.30;42.40;;;;;;4995841;28;20944;-49
2023/10/02 09:43:33;;;;;;;12.40;8.70;;;28.40;42.00;;;;;;4988132;28;20504;-50
2023/10/02 09:46:06;;;;;;;13.73;8.90;;;28.10;43.20;;;;;;4996915;28;20453;-48
2023/10/02 09:48:46;;;;;;;11.80;8.70;;;28.20;42.80;;;;;;4996542;28;20458;-49
2023/10/02 09:51:27;;;;;;;11.53;8.87;;;28.30;43.30;;;;;;5000628;28;21086;-51
2023/10/02 09:54:05;;;;;;;11.57;8.47;;;28.50;42.90;;;;;;4986184;28;20452;-50
2023/10/02 09:56:54;;;;;;;11.33;8.33;;;28.80;42.80;;;;;;4984739;28;20515;-54
2023/10/02 09:59:23;;;;;;;12.70;9.10;;;29.00;42.20;;;;;;4992206;28;21071;-49
2023/10/02 10:07:46;;;;;;;11.87;9.47;;;29.00;41.00;;;;;;4990472;28;20454;-53
2023/10/02 10:10:57;;;;;;;10.70;7.93;;;28.90;41.60;;;;;;4990330;28;20496;-53
2023/10/02 10:13:27;;;;;;;12.30;8.33;;;29.30;41.50;;;;;;4991822;28;20517;-51
2023/10/02 10:16:18;;;;;;;12.87;8.50;;;29.50;41.00;;;;;;4992151;28;20468;-52
2023/10/02 10:19:41;;;;;;;11.10;7.77;;;29.80;41.00;;;;;;4982382;28;20442;-51
2023/10/02 10:22:01;;;;;;;13.43;8.77;;;30.00;40.60;;;;;;4996164;28;20477;-52
2023/10/02 10:24:55;;;;;;;10.80;9.33;;;30.30;39.80;;;;;;4987969;28;20456;-55
2023/10/02 10:27:41;;;;;;;11.63;8.73;;;30.50;38.90;;;;;;4997959;28;20448;-51
2023/10/02 10:30:22;;;;;;;12.60;9.00;;;30.70;38.40;;;;;;4994218;28;20461;-51
2023/10/02 10:35:40;;;;;;;15.10;9.30;;;30.90;37.10;;;;;;4979421;28;20937;-52
2023/10/02 10:38:21;;;;;;;13.80;10.33;;;31.00;36.50;;;;;;4988463;28;20449;-49
2023/10/02 10:40:50;;;;;;;14.53;10.80;;;31.30;35.60;;;;;;4980260;28;20608;-52
2023/10/02 10:43:21;;;;;;;14.93;9.87;;;31.30;35.50;;;;;;4978785;28;20490;-57
2023/10/02 10:45:48;;;;;;;15.00;10.13;;;31.40;35.70;;;;;;4988163;28;20476;-50
2023/10/02 10:48:22;;;;;;;18.43;10.77;;;31.40;34.60;;;;;;4989991;28;20512;-51
2023/10/02 10:50:57;;;;;;;14.87;11.37;;;31.50;34.50;;;;;;4984300;28;20446;-53
2023/10/02 10:53:26;;;;;;;21.03;10.20;;;31.60;33.50;;;;;;4982070;28;20965;-50
2023/10/02 10:55:56;;;;;;;15.70;11.67;;;31.70;32.40;;;;;;4979387;28;20489;-50
2023/10/02 10:58:35;;;;;;;15.50;11.53;;;31.80;32.80;;;;;;4997587;28;20516;-49
2023/10/02 11:01:07;;;;;;;15.73;11.43;;;32.00;32.30;;;;;;5007972;28;20425;-48
2023/10/02 11:03:34;;;;;;;16.47;11.83;;;32.10;33.10;;;;;;5003545;28;20525;-48
2023/10/02 11:06:02;;;;;;;20.53;12.87;;;32.30;31.30;;;;;;4997234;28;21281;-47
2023/10/02 11:08:29;;;;;;;16.97;11.40;;;32.50;30.60;;;;;;5003047;28;21020;-49
2023/10/02 11:11:01;;;;;;;19.13;13.60;;;32.70;29.80;;;;;;5005667;28;20786;-48
2023/10/02 11:13:50;;;;;;;25.73;13.83;;;32.70;30.40;;;;;;4996670;28;20429;-50
2023/10/02 11:16:30;;;;;;;18.90;13.97;;;32.90;30.40;;;;;;5006407;28;20421;-49
2023/10/02 11:19:13;;;;;;;19.73;13.43;;;32.90;30.00;;;;;;4984770;28;20802;-50
2023/10/02 11:21:48;;;;;;;24.63;13.70;;;33.00;30.00;;;;;;5000454;28;20520;-49
2023/10/02 11:24:21;;;;;;;21.20;14.00;;;33.00;30.40;;;;;;5000715;28;20459;-47
2023/10/02 11:26:47;;;;;;;20.57;13.93;;;33.00;30.50;;;;;;5003310;28;20506;-50
2023/10/02 11:29:20;;;;;;;17.70;13.03;;;33.00;30.20;;;;;;4992751;28;20457;-48
2023/10/02 11:31:56;;;;;;;24.60;14.57;;;33.10;30.60;;;;;;4998824;28;20484;-49
2023/10/02 11:34:22;;;;;;;21.03;12.90;;;33.20;31.10;;;;;;4991934;28;20549;-49
2023/10/02 11:36:58;;;;;;;22.30;14.43;;;33.30;31.30;;;;;;5003054;28;20861;-49
2023/10/02 11:39:27;;;;;;;21.43;14.10;;;33.50;30.70;;;;;;4994191;28;20202;-48
2023/10/02 11:41:53;;;;;;;20.17;13.13;;;33.60;30.00;;;;;;5003809;28;20481;-51
2023/10/02 11:44:18;;;;;;;22.20;13.60;;;33.50;29.90;;;;;;5002439;28;20479;-51
2023/10/02 11:46:44;;;;;;;19.10;14.50;;;33.60;30.50;;;;;;4998334;28;20194;-48
2023/10/02 11:49:12;;;;;;;21.07;14.43;;;33.70;30.00;;;;;;4999364;28;20646;-50
2023/10/02 11:51:39;;;;;;;18.00;12.33;;;33.80;30.30;;;;;;4989435;28;20198;-48
2023/10/02 11:54:11;;;;;;;23.00;15.17;;;33.80;30.20;;;;;;4996446;28;20437;-51
2023/10/02 11:56:38;;;;;;;23.20;14.30;;;33.60;29.70;;;;;;4989453;28;20525;-49
2023/10/02 11:59:06;;;;;;;19.10;13.77;;;33.70;30.40;;;;;;4989446;28;20438;-52
2023/10/02 12:01:31;;;;;;;23.00;15.50;;;33.80;30.20;;;;;;5003680;28;20515;-50
2023/10/02 12:03:57;;;;;;;21.40;15.43;;;34.00;29.80;;;;;;4991103;28;20525;-53
2023/10/02 12:06:25;;;;;;;28.17;15.10;;;34.20;29.10;;;;;;4998440;28;20256;-50
2023/10/02 12:08:51;;;;;;;23.20;14.43;;;34.40;29.30;;;;;;4984150;28;20282;-49
2023/10/02 12:11:17;;;;;;;22.87;14.17;;;34.40;29.70;;;;;;4984500;28;20438;-49
2023/10/02 12:13:44;;;;;;;27.77;17.73;;;34.40;29.90;;;;;;5001688;28;20436;-50
2023/10/02 12:16:11;;;;;;;28.40;17.00;;;34.50;29.30;;;;;;4998105;28;20190;-48
2023/10/02 12:18:42;;;;;;;29.43;17.60;;;34.50;28.70;;;;;;5005937;28;20556;-51
2023/10/02 12:21:10;;;;;;;27.23;17.03;;;34.40;28.30;;;;;;4999087;28;20531;-50
2023/10/02 12:23:39;;;;;;;33.57;20.67;;;34.40;28.40;;;;;;4997891;28;20493;-49
2023/10/02 12:26:09;;;;;;;37.00;20.00;;;34.50;27.60;;;;;;5001804;28;20425;-48
2023/10/02 12:28:38;;;;;;;26.73;17.03;;;34.70;27.50;;;;;;4991060;28;20535;-48
2023/10/02 12:31:13;;;;;;;24.90;17.80;;;34.50;27.80;;;;;;4984107;28;20450;-51
2023/10/02 12:33:41;;;;;;;26.00;17.03;;;34.40;28.00;;;;;;4980267;28;20480;-48
2023/10/02 12:36:20;;;;;;;29.53;18.90;;;34.60;27.60;;;;;;4990830;28;21539;-50
2023/10/02 12:38:47;;;;;;;29.17;19.47;;;34.70;27.50;;;;;;4986384;28;20441;-50
2023/10/02 12:41:15;;;;;;;28.27;19.77;;;34.80;27.10;;;;;;4989841;28;20483;-51
2023/10/02 12:43:43;;;;;;;29.90;18.47;;;34.90;26.90;;;;;;4991800;28;20980;-52
2023/10/02 12:46:14;;;;;;;31.10;20.17;;;35.00;27.20;;;;;;4991331;28;20469;-49
2023/10/02 12:48:46;;;;;;;31.93;21.43;;;35.10;26.50;;;;;;4997233;28;20446;-49
2023/10/02 12:51:13;;;;;;;40.87;25.23;;;35.20;25.50;;;;;;5006549;28;20492;-46
2023/10/02 12:53:40;;;;;;;43.60;27.00;;;35.20;24.20;;;;;;5000756;28;20503;-50
2023/10/02 12:56:06;;;;;;;40.47;27.73;;;35.20;20.70;;;;;;5010379;28;20925;-50
2023/10/02 12:58:36;;;;;;;40.00;24.90;;;35.30;20.90;;;;;;4990978;28;20450;-52
2023/10/02 13:01:02;;;;;;;41.20;27.23;;;35.40;21.00;;;;;;4999299;28;20449;-50
2023/10/02 13:03:29;;;;;;;41.63;26.63;;;35.50;21.70;;;;;;4996781;28;20496;-50
2023/10/02 13:05:58;;;;;;;36.20;22.70;;;35.60;21.60;;;;;;4998613;28;20202;-50
2023/10/02 13:08:25;;;;;;;33.00;21.93;;;35.50;23.20;;;;;;4995387;28;20445;-51
2023/10/02 13:10:51;;;;;;;35.03;21.60;;;35.60;23.80;;;;;;4987701;28;20445;-51
2023/10/02 13:13:16;;;;;;;35.30;22.00;;;35.50;24.00;;;;;;4989688;28;20933;-46
2023/10/02 13:15:43;;;;;;;34.00;22.40;;;35.60;24.00;;;;;;5002533;28;20202;-46
2023/10/02 13:18:08;;;;;;;36.93;23.27;;;35.60;23.60;;;;;;4999160;28;20202;-46
2023/10/02 13:20:35;;;;;;;36.33;23.67;;;35.70;23.70;;;;;;4991242;28;20462;-54
2023/10/02 13:23:02;;;;;;;33.63;21.30;;;35.80;23.90;;;;;;4989350;28;20714;-49
2023/10/02 13:25:28;;;;;;;36.73;22.37;;;35.70;24.20;;;;;;4985713;28;20816;-50
2023/10/02 13:27:53;;;;;;;32.43;22.60;;;35.60;24.20;;;;;;4991368;28;20442;-47
2023/10/02 13:30:25;;;;;;;32.30;21.40;;;35.50;23.40;;;;;;5000368;28;20256;-47
2023/10/02 13:32:55;;;;;;;33.80;21.10;;;35.30;24.30;;;;;;4998194;28;20198;-49
2023/10/02 13:35:21;;;;;;;33.50;23.40;;;35.60;23.80;;;;;;4996930;28;20561;-48
2023/10/02 13:37:47;;;;;;;38.00;22.90;;;35.60;23.40;;;;;;4993897;28;20923;-50
2023/10/02 13:40:25;;;;;;;33.50;22.07;;;35.80;23.30;;;;;;4988497;28;20490;-48
2023/10/02 13:42:52;;;;;;;34.23;22.10;;;35.90;23.80;;;;;;4991618;28;20588;-49
2023/10/02 13:45:19;;;;;;;34.27;21.13;;;36.00;23.10;;;;;;4994251;28;20425;-50
2023/10/02 13:47:46;;;;;;;36.03;21.70;;;36.10;23.10;;;;;;4990713;28;20469;-47
2023/10/02 13:50:13;;;;;;;33.03;21.07;;;36.20;23.10;;;;;;5004053;28;20433;-46